sensor_id;sensor_type;location;lat;lon;timestamp;temperature;humidity
35607;DHT22;21729;58.392;15.656;2023-04-24T00:02:16;5.20;1.00
35607;DHT22;21729;58.392;15.656;2023-04-24T00:04:44;5.10;1.00
35607;DHT22;21729;58.392;15.656;2023-04-24T00:07:12;5.10;1.00
35607;DHT22;21729;58.392;15.656;2023-04-24T00:09:40;5.10;1.00
35607;DHT22;21729;58.392;15.656;2023-04-24T00:12:07;5.00;1.00
35607;DHT22;21729;58.392;15.656;2023-04-24T00:14:34;5.00;1.00
35607;DHT22;21729;58.392;15.656;2023-04-24T00:17:03;5.00;1.00
35607;DHT22;21729;58.392;15.656;2023-04-24T00:19:30;5.00;1.00
35607;DHT22;21729;58.392;15.656;2023-04-24T00:21:57;5.00;1.00
35607;DHT22;21729;58.392;15.656;2023-04-24T00:24:24;4.90;1.00
35607;DHT22;21729;58.392;15.656;2023-04-24T00:26:51;4.90;1.00
35607;DHT22;21729;58.392;15.656;2023-04-24T00:29:18;4.90;1.00
35607;DHT22;21729;58.392;15.656;2023-04-24T00:31:46;4.80;1.00
35607;DHT22;21729;58.392;15.656;2023-04-24T00:34:14;4.80;1.00
35607;DHT22;21729;58.392;15.656;2023-04-24T00:36:41;4.80;1.00
35607;DHT22;21729;58.392;15.656;2023-04-24T00:39:08;4.80;1.00
35607;DHT22;21729;58.392;15.656;2023-04-24T00:41:35;4.70;1.00
35607;DHT22;21729;58.392;15.656;2023-04-24T00:44:02;4.70;1.00
35607;DHT22;21729;58.392;15.656;2023-04-24T00:46:30;4.60;1.00
35607;DHT22;21729;58.392;15.656;2023-04-24T00:48:59;4.70;1.00
35607;DHT22;21729;58.392;15.656;2023-04-24T00:51:27;4.70;1.00
35607;DHT22;21729;58.392;15.656;2023-04-24T00:53:56;4.70;1.00
35607;DHT22;21729;58.392;15.656;2023-04-24T00:56:23;4.70;1.00
35607;DHT22;21729;58.392;15.656;2023-04-24T00:58:51;4.60;1.00
35607;DHT22;21729;58.392;15.656;2023-04-24T01:01:20;4.60;1.00
35607;DHT22;21729;58.392;15.656;2023-04-24T01:03:47;4.60;1.00
35607;DHT22;21729;58.392;15.656;2023-04-24T01:06:16;4.60;1.00
35607;DHT22;21729;58.392;15.656;2023-04-24T01:08:45;4.50;1.00
35607;DHT22;21729;58.392;15.656;2023-04-24T01:11:13;4.50;1.00
35607;DHT22;21729;58.392;15.656;2023-04-24T01:13:41;4.50;1.00
35607;DHT22;21729;58.392;15.656;2023-04-24T01:16:08;4.50;1.00
35607;DHT22;21729;58.392;15.656;2023-04-24T01:18:35;4.50;1.00
35607;DHT22;21729;58.392;15.656;2023-04-24T01:21:04;4.50;1.00
35607;DHT22;21729;58.392;15.656;2023-04-24T01:23:33;4.40;1.00
35607;DHT22;21729;58.392;15.656;2023-04-24T01:26:01;4.50;1.00
35607;DHT22;21729;58.392;15.656;2023-04-24T01:28:28;4.50;1.00
35607;DHT22;21729;58.392;15.656;2023-04-24T01:30:55;4.50;1.00
35607;DHT22;21729;58.392;15.656;2023-04-24T01:33:23;4.40;1.00
35607;DHT22;21729;58.392;15.656;2023-04-24T01:35:50;4.40;1.00
35607;DHT22;21729;58.392;15.656;2023-04-24T01:38:18;4.40;1.00
35607;DHT22;21729;58.392;15.656;2023-04-24T01:40:47;4.40;1.00
35607;DHT22;21729;58.392;15.656;2023-04-24T01:43:14;4.40;1.00
35607;DHT22;21729;58.392;15.656;2023-04-24T01:45:41;4.40;1.00
35607;DHT22;21729;58.392;15.656;2023-04-24T01:48:08;4.40;1.00
35607;DHT22;21729;58.392;15.656;2023-04-24T01:50:35;4.40;1.00
35607;DHT22;21729;58.392;15.656;2023-04-24T01:53:02;4.30;1.00
35607;DHT22;21729;58.392;15.656;2023-04-24T01:55:31;4.30;1.00
35607;DHT22;21729;58.392;15.656;2023-04-24T01:58:00;4.30;1.00
35607;DHT22;21729;58.392;15.656;2023-04-24T02:00:28;4.40;1.00
35607;DHT22;21729;58.392;15.656;2023-04-24T02:02:55;4.40;1.00
35607;DHT22;21729;58.392;15.656;2023-04-24T02:05:22;4.30;1.00
35607;DHT22;21729;58.392;15.656;2023-04-24T02:07:49;4.50;1.00
35607;DHT22;21729;58.392;15.656;2023-04-24T02:10:16;4.50;1.00
35607;DHT22;21729;58.392;15.656;2023-04-24T02:12:43;4.60;1.00
35607;DHT22;21729;58.392;15.656;2023-04-24T02:15:12;4.60;1.00
35607;DHT22;21729;58.392;15.656;2023-04-24T02:17:39;4.70;1.00
35607;DHT22;21729;58.392;15.656;2023-04-24T02:20:07;4.60;1.00
35607;DHT22;21729;58.392;15.656;2023-04-24T02:22:34;4.70;1.00
35607;DHT22;21729;58.392;15.656;2023-04-24T02:25:02;4.80;1.00
35607;DHT22;21729;58.392;15.656;2023-04-24T02:27:29;4.80;1.00
35607;DHT22;21729;58.392;15.656;2023-04-24T02:29:56;4.80;1.00
35607;DHT22;21729;58.392;15.656;2023-04-24T02:32:25;4.80;1.00
35607;DHT22;21729;58.392;15.656;2023-04-24T02:34:52;4.80;1.00
35607;DHT22;21729;58.392;15.656;2023-04-24T02:37:19;4.90;1.00
35607;DHT22;21729;58.392;15.656;2023-04-24T02:39:46;4.90;1.00
35607;DHT22;21729;58.392;15.656;2023-04-24T02:42:13;4.90;1.00
35607;DHT22;21729;58.392;15.656;2023-04-24T02:44:41;5.00;1.00
35607;DHT22;21729;58.392;15.656;2023-04-24T02:47:08;5.00;2.20
35607;DHT22;21729;58.392;15.656;2023-04-24T02:49:36;5.00;4.20
35607;DHT22;21729;58.392;15.656;2023-04-24T02:52:03;5.00;5.20
35607;DHT22;21729;58.392;15.656;2023-04-24T02:54:30;5.00;7.40
35607;DHT22;21729;58.392;15.656;2023-04-24T02:56:58;5.00;8.80
35607;DHT22;21729;58.392;15.656;2023-04-24T02:59:26;5.10;9.80
35607;DHT22;21729;58.392;15.656;2023-04-24T03:01:54;5.10;10.40
35607;DHT22;21729;58.392;15.656;2023-04-24T03:04:21;5.10;10.80
35607;DHT22;21729;58.392;15.656;2023-04-24T03:06:50;5.10;11.60
35607;DHT22;21729;58.392;15.656;2023-04-24T03:09:18;5.20;17.40
35607;DHT22;21729;58.392;15.656;2023-04-24T03:11:45;5.20;14.60
35607;DHT22;21729;58.392;15.656;2023-04-24T03:14:14;5.20;16.00
35607;DHT22;21729;58.392;15.656;2023-04-24T03:16:41;5.30;16.80
35607;DHT22;21729;58.392;15.656;2023-04-24T03:19:09;5.40;17.70
35607;DHT22;21729;58.392;15.656;2023-04-24T03:21:36;5.40;19.90
35607;DHT22;21729;58.392;15.656;2023-04-24T03:24:07;5.30;23.20
35607;DHT22;21729;58.392;15.656;2023-04-24T03:26:35;5.40;25.10
35607;DHT22;21729;58.392;15.656;2023-04-24T03:29:02;5.40;27.80
35607;DHT22;21729;58.392;15.656;2023-04-24T03:31:29;5.40;28.50
35607;DHT22;21729;58.392;15.656;2023-04-24T03:33:56;5.50;29.00
35607;DHT22;21729;58.392;15.656;2023-04-24T03:36:24;5.50;32.60
35607;DHT22;21729;58.392;15.656;2023-04-24T03:38:51;5.50;33.10
35607;DHT22;21729;58.392;15.656;2023-04-24T03:41:20;5.60;36.40
35607;DHT22;21729;58.392;15.656;2023-04-24T03:43:48;5.60;37.40
35607;DHT22;21729;58.392;15.656;2023-04-24T03:46:16;5.60;40.40
35607;DHT22;21729;58.392;15.656;2023-04-24T03:48:43;5.60;40.10
35607;DHT22;21729;58.392;15.656;2023-04-24T03:51:10;5.70;41.80
35607;DHT22;21729;58.392;15.656;2023-04-24T03:53:38;5.70;41.40
35607;DHT22;21729;58.392;15.656;2023-04-24T03:56:05;5.70;41.60
35607;DHT22;21729;58.392;15.656;2023-04-24T03:58:33;5.80;43.00
35607;DHT22;21729;58.392;15.656;2023-04-24T04:01:01;5.80;41.60
35607;DHT22;21729;58.392;15.656;2023-04-24T04:03:28;5.80;40.50
35607;DHT22;21729;58.392;15.656;2023-04-24T04:05:55;5.90;40.80
35607;DHT22;21729;58.392;15.656;2023-04-24T04:08:22;5.80;39.20
35607;DHT22;21729;58.392;15.656;2023-04-24T04:10:50;5.90;37.60
35607;DHT22;21729;58.392;15.656;2023-04-24T04:13:17;5.90;35.10
35607;DHT22;21729;58.392;15.656;2023-04-24T04:15:45;6.00;36.90
35607;DHT22;21729;58.392;15.656;2023-04-24T04:18:13;6.00;32.30
35607;DHT22;21729;58.392;15.656;2023-04-24T04:20:41;6.00;27.00
35607;DHT22;21729;58.392;15.656;2023-04-24T04:23:09;6.00;25.00
35607;DHT22;21729;58.392;15.656;2023-04-24T04:25:36;6.00;23.50
35607;DHT22;21729;58.392;15.656;2023-04-24T04:28:04;6.00;2.40
35607;DHT22;21729;58.392;15.656;2023-04-24T04:30:31;6.00;11.40
35607;DHT22;21729;58.392;15.656;2023-04-24T04:32:59;6.10;14.40
35607;DHT22;21729;58.392;15.656;2023-04-24T04:35:27;6.20;8.90
35607;DHT22;21729;58.392;15.656;2023-04-24T04:37:54;6.10;3.70
35607;DHT22;21729;58.392;15.656;2023-04-24T04:40:21;6.10;7.70
35607;DHT22;21729;58.392;15.656;2023-04-24T04:42:49;6.10;1.00
35607;DHT22;21729;58.392;15.656;2023-04-24T04:45:18;6.10;1.00
35607;DHT22;21729;58.392;15.656;2023-04-24T04:47:46;6.10;1.00
35607;DHT22;21729;58.392;15.656;2023-04-24T04:50:15;6.10;1.00
35607;DHT22;21729;58.392;15.656;2023-04-24T04:52:44;6.10;1.00
35607;DHT22;21729;58.392;15.656;2023-04-24T04:55:11;6.20;1.00
35607;DHT22;21729;58.392;15.656;2023-04-24T04:57:39;6.30;1.00
35607;DHT22;21729;58.392;15.656;2023-04-24T05:00:07;6.40;1.00
35607;DHT22;21729;58.392;15.656;2023-04-24T05:02:36;6.40;1.00
35607;DHT22;21729;58.392;15.656;2023-04-24T05:05:04;6.40;1.00
35607;DHT22;21729;58.392;15.656;2023-04-24T05:07:33;6.50;1.00
35607;DHT22;21729;58.392;15.656;2023-04-24T05:10:00;6.50;1.00
35607;DHT22;21729;58.392;15.656;2023-04-24T05:12:27;6.40;1.00
35607;DHT22;21729;58.392;15.656;2023-04-24T05:14:54;6.50;1.00
35607;DHT22;21729;58.392;15.656;2023-04-24T05:17:22;6.50;1.00
35607;DHT22;21729;58.392;15.656;2023-04-24T05:19:49;6.50;1.00
35607;DHT22;21729;58.392;15.656;2023-04-24T05:22:16;6.50;1.00
35607;DHT22;21729;58.392;15.656;2023-04-24T05:24:48;6.70;1.00
35607;DHT22;21729;58.392;15.656;2023-04-24T05:27:15;6.60;1.00
35607;DHT22;21729;58.392;15.656;2023-04-24T05:29:42;6.50;1.00
35607;DHT22;21729;58.392;15.656;2023-04-24T05:32:09;6.60;1.00
35607;DHT22;21729;58.392;15.656;2023-04-24T05:34:37;6.60;1.00
35607;DHT22;21729;58.392;15.656;2023-04-24T05:37:04;6.70;1.00
35607;DHT22;21729;58.392;15.656;2023-04-24T05:39:34;6.70;1.00
35607;DHT22;21729;58.392;15.656;2023-04-24T05:42:03;6.80;1.00
35607;DHT22;21729;58.392;15.656;2023-04-24T05:44:31;6.80;1.00
35607;DHT22;21729;58.392;15.656;2023-04-24T05:46:58;6.80;1.00
35607;DHT22;21729;58.392;15.656;2023-04-24T05:49:26;6.80;1.00
35607;DHT22;21729;58.392;15.656;2023-04-24T05:51:53;6.70;1.00
35607;DHT22;21729;58.392;15.656;2023-04-24T05:54:20;6.80;1.00
35607;DHT22;21729;58.392;15.656;2023-04-24T05:56:49;6.90;1.00
35607;DHT22;21729;58.392;15.656;2023-04-24T05:59:17;6.90;1.00
35607;DHT22;21729;58.392;15.656;2023-04-24T06:01:44;7.10;1.00
35607;DHT22;21729;58.392;15.656;2023-04-24T06:04:12;7.20;1.00
35607;DHT22;21729;58.392;15.656;2023-04-24T06:06:40;7.20;1.00
35607;DHT22;21729;58.392;15.656;2023-04-24T06:09:08;7.40;1.00
35607;DHT22;21729;58.392;15.656;2023-04-24T06:11:35;7.60;1.00
35607;DHT22;21729;58.392;15.656;2023-04-24T06:14:04;7.80;1.00
35607;DHT22;21729;58.392;15.656;2023-04-24T06:16:33;7.80;1.00
35607;DHT22;21729;58.392;15.656;2023-04-24T06:19:00;7.80;99.90
35607;DHT22;21729;58.392;15.656;2023-04-24T06:21:28;7.80;99.90
35607;DHT22;21729;58.392;15.656;2023-04-24T06:23:57;7.80;99.90
35607;DHT22;21729;58.392;15.656;2023-04-24T06:26:24;7.80;99.90
35607;DHT22;21729;58.392;15.656;2023-04-24T06:28:52;7.70;99.90
35607;DHT22;21729;58.392;15.656;2023-04-24T06:31:24;7.60;99.90
35607;DHT22;21729;58.392;15.656;2023-04-24T06:33:53;7.70;99.90
35607;DHT22;21729;58.392;15.656;2023-04-24T06:36:20;7.60;99.90
35607;DHT22;21729;58.392;15.656;2023-04-24T06:38:47;7.70;99.90
35607;DHT22;21729;58.392;15.656;2023-04-24T06:41:14;7.90;99.90
35607;DHT22;21729;58.392;15.656;2023-04-24T06:43:42;7.90;99.90
35607;DHT22;21729;58.392;15.656;2023-04-24T06:46:09;7.90;99.90
35607;DHT22;21729;58.392;15.656;2023-04-24T06:48:37;7.90;99.90
35607;DHT22;21729;58.392;15.656;2023-04-24T06:51:06;8.20;99.90
35607;DHT22;21729;58.392;15.656;2023-04-24T06:53:33;8.60;99.90
35607;DHT22;21729;58.392;15.656;2023-04-24T06:56:01;8.80;99.90
35607;DHT22;21729;58.392;15.656;2023-04-24T06:58:29;8.50;99.90
35607;DHT22;21729;58.392;15.656;2023-04-24T07:00:57;8.60;99.90
35607;DHT22;21729;58.392;15.656;2023-04-24T07:03:24;8.40;99.90
35607;DHT22;21729;58.392;15.656;2023-04-24T07:05:51;8.40;99.90
35607;DHT22;21729;58.392;15.656;2023-04-24T07:08:20;8.40;99.90
35607;DHT22;21729;58.392;15.656;2023-04-24T07:10:49;8.50;99.90
35607;DHT22;21729;58.392;15.656;2023-04-24T07:13:16;8.30;99.90
35607;DHT22;21729;58.392;15.656;2023-04-24T07:15:43;8.50;99.90
35607;DHT22;21729;58.392;15.656;2023-04-24T07:18:11;8.50;99.90
35607;DHT22;21729;58.392;15.656;2023-04-24T07:20:39;8.60;99.90
35607;DHT22;21729;58.392;15.656;2023-04-24T07:23:06;8.60;99.90
35607;DHT22;21729;58.392;15.656;2023-04-24T07:25:35;8.60;99.90
35607;DHT22;21729;58.392;15.656;2023-04-24T07:28:03;9.10;99.90
35607;DHT22;21729;58.392;15.656;2023-04-24T07:30:30;9.10;99.90
35607;DHT22;21729;58.392;15.656;2023-04-24T07:32:58;9.10;99.90
35607;DHT22;21729;58.392;15.656;2023-04-24T07:35:25;9.00;99.90
35607;DHT22;21729;58.392;15.656;2023-04-24T07:37:53;9.00;99.90
35607;DHT22;21729;58.392;15.656;2023-04-24T07:40:20;8.90;99.90
35607;DHT22;21729;58.392;15.656;2023-04-24T07:42:49;9.30;99.90
35607;DHT22;21729;58.392;15.656;2023-04-24T07:45:16;9.30;99.90
35607;DHT22;21729;58.392;15.656;2023-04-24T07:47:44;9.20;99.90
35607;DHT22;21729;58.392;15.656;2023-04-24T07:50:11;9.20;99.90
35607;DHT22;21729;58.392;15.656;2023-04-24T07:52:38;9.10;99.90
35607;DHT22;21729;58.392;15.656;2023-04-24T07:55:06;8.80;99.90
35607;DHT22;21729;58.392;15.656;2023-04-24T07:57:34;8.90;99.90
35607;DHT22;21729;58.392;15.656;2023-04-24T08:00:03;9.10;99.90
35607;DHT22;21729;58.392;15.656;2023-04-24T08:02:31;9.30;99.90
35607;DHT22;21729;58.392;15.656;2023-04-24T08:04:58;9.20;99.90
35607;DHT22;21729;58.392;15.656;2023-04-24T08:07:25;9.20;97.30
35607;DHT22;21729;58.392;15.656;2023-04-24T08:09:55;9.30;99.90
35607;DHT22;21729;58.392;15.656;2023-04-24T08:12:23;9.40;99.90
35607;DHT22;21729;58.392;15.656;2023-04-24T08:14:50;9.60;99.90
35607;DHT22;21729;58.392;15.656;2023-04-24T08:17:19;9.60;99.70
35607;DHT22;21729;58.392;15.656;2023-04-24T08:19:46;9.70;99.90
35607;DHT22;21729;58.392;15.656;2023-04-24T08:22:14;9.70;62.40
35607;DHT22;21729;58.392;15.656;2023-04-24T08:24:41;9.90;99.90
35607;DHT22;21729;58.392;15.656;2023-04-24T08:27:09;10.10;9.60
35607;DHT22;21729;58.392;15.656;2023-04-24T08:29:37;10.40;4.20
35607;DHT22;21729;58.392;15.656;2023-04-24T08:32:04;10.20;1.00
35607;DHT22;21729;58.392;15.656;2023-04-24T08:34:33;10.30;11.10
35607;DHT22;21729;58.392;15.656;2023-04-24T08:37:01;10.60;1.00
35607;DHT22;21729;58.392;15.656;2023-04-24T08:39:29;10.60;2.80
35607;DHT22;21729;58.392;15.656;2023-04-24T08:41:56;10.60;1.00
35607;DHT22;21729;58.392;15.656;2023-04-24T08:44:31;10.50;1.00
35607;DHT22;21729;58.392;15.656;2023-04-24T08:46:59;10.50;1.00
35607;DHT22;21729;58.392;15.656;2023-04-24T08:49:28;10.50;1.00
35607;DHT22;21729;58.392;15.656;2023-04-24T08:51:57;10.20;1.00
35607;DHT22;21729;58.392;15.656;2023-04-24T08:54:26;10.30;1.00
35607;DHT22;21729;58.392;15.656;2023-04-24T08:56:58;10.40;1.00
35607;DHT22;21729;58.392;15.656;2023-04-24T08:59:27;11.00;1.00
35607;DHT22;21729;58.392;15.656;2023-04-24T09:01:55;10.90;1.00
35607;DHT22;21729;58.392;15.656;2023-04-24T09:04:23;11.30;3.90
35607;DHT22;21729;58.392;15.656;2023-04-24T09:06:51;11.30;1.00
35607;DHT22;21729;58.392;15.656;2023-04-24T09:09:22;11.00;1.00
35607;DHT22;21729;58.392;15.656;2023-04-24T09:11:50;11.10;1.00
35607;DHT22;21729;58.392;15.656;2023-04-24T09:14:21;10.80;1.00
35607;DHT22;21729;58.392;15.656;2023-04-24T09:16:49;10.90;1.00
35607;DHT22;21729;58.392;15.656;2023-04-24T09:19:16;10.60;1.00
35607;DHT22;21729;58.392;15.656;2023-04-24T09:21:46;10.60;1.00
35607;DHT22;21729;58.392;15.656;2023-04-24T09:24:15;10.60;1.00
35607;DHT22;21729;58.392;15.656;2023-04-24T09:26:45;10.50;1.00
35607;DHT22;21729;58.392;15.656;2023-04-24T09:29:15;10.70;1.00
35607;DHT22;21729;58.392;15.656;2023-04-24T09:31:43;11.00;1.00
35607;DHT22;21729;58.392;15.656;2023-04-24T09:34:11;10.70;1.00
35607;DHT22;21729;58.392;15.656;2023-04-24T09:36:39;10.80;1.00
35607;DHT22;21729;58.392;15.656;2023-04-24T09:39:08;10.80;1.00
35607;DHT22;21729;58.392;15.656;2023-04-24T09:41:45;10.70;1.00
35607;DHT22;21729;58.392;15.656;2023-04-24T09:44:14;10.90;1.00
35607;DHT22;21729;58.392;15.656;2023-04-24T09:46:42;10.60;1.00
35607;DHT22;21729;58.392;15.656;2023-04-24T09:49:14;10.60;1.00
35607;DHT22;21729;58.392;15.656;2023-04-24T09:51:42;10.60;1.00
35607;DHT22;21729;58.392;15.656;2023-04-24T09:54:16;10.70;1.00
35607;DHT22;21729;58.392;15.656;2023-04-24T09:56:46;11.10;1.00
35607;DHT22;21729;58.392;15.656;2023-04-24T09:59:16;11.30;1.00
35607;DHT22;21729;58.392;15.656;2023-04-24T10:01:43;11.20;1.00
35607;DHT22;21729;58.392;15.656;2023-04-24T10:04:18;11.30;1.00
35607;DHT22;21729;58.392;15.656;2023-04-24T10:06:47;11.00;1.00
35607;DHT22;21729;58.392;15.656;2023-04-24T10:09:15;11.10;1.00
35607;DHT22;21729;58.392;15.656;2023-04-24T10:11:45;11.30;1.00
35607;DHT22;21729;58.392;15.656;2023-04-24T10:14:14;11.50;1.00
35607;DHT22;21729;58.392;15.656;2023-04-24T10:16:42;12.00;1.00
35607;DHT22;21729;58.392;15.656;2023-04-24T10:19:11;11.90;99.90
35607;DHT22;21729;58.392;15.656;2023-04-24T10:21:40;12.10;99.90
35607;DHT22;21729;58.392;15.656;2023-04-24T10:24:12;12.20;99.90
35607;DHT22;21729;58.392;15.656;2023-04-24T10:26:40;12.40;99.90
35607;DHT22;21729;58.392;15.656;2023-04-24T10:29:10;12.40;99.90
35607;DHT22;21729;58.392;15.656;2023-04-24T10:31:39;12.60;99.90
35607;DHT22;21729;58.392;15.656;2023-04-24T10:34:09;12.70;99.90
35607;DHT22;21729;58.392;15.656;2023-04-24T10:36:40;12.60;99.90
35607;DHT22;21729;58.392;15.656;2023-04-24T10:39:12;12.40;99.90
35607;DHT22;21729;58.392;15.656;2023-04-24T10:41:41;12.50;99.90
35607;DHT22;21729;58.392;15.656;2023-04-24T10:44:11;12.70;99.90
35607;DHT22;21729;58.392;15.656;2023-04-24T10:46:43;12.40;99.90
35607;DHT22;21729;58.392;15.656;2023-04-24T10:49:10;12.40;99.90
35607;DHT22;21729;58.392;15.656;2023-04-24T10:51:46;12.40;99.90
35607;DHT22;21729;58.392;15.656;2023-04-24T10:54:24;12.60;99.90
35607;DHT22;21729;58.392;15.656;2023-04-24T10:56:52;12.40;99.90
35607;DHT22;21729;58.392;15.656;2023-04-24T10:59:27;12.40;99.90
35607;DHT22;21729;58.392;15.656;2023-04-24T11:02:03;12.70;99.90
35607;DHT22;21729;58.392;15.656;2023-04-24T11:04:34;12.70;99.90
35607;DHT22;21729;58.392;15.656;2023-04-24T11:07:02;13.00;99.90
35607;DHT22;21729;58.392;15.656;2023-04-24T11:09:31;12.90;99.90
35607;DHT22;21729;58.392;15.656;2023-04-24T11:12:06;12.60;99.90
35607;DHT22;21729;58.392;15.656;2023-04-24T11:14:59;12.30;99.90
35607;DHT22;21729;58.392;15.656;2023-04-24T11:17:30;12.50;99.90
35607;DHT22;21729;58.392;15.656;2023-04-24T11:20:02;12.80;99.90
35607;DHT22;21729;58.392;15.656;2023-04-24T11:22:33;13.00;99.90
35607;DHT22;21729;58.392;15.656;2023-04-24T11:25:02;13.10;99.90
35607;DHT22;21729;58.392;15.656;2023-04-24T11:27:31;13.10;99.90
35607;DHT22;21729;58.392;15.656;2023-04-24T11:30:03;13.30;99.90
35607;DHT22;21729;58.392;15.656;2023-04-24T11:32:34;12.90;99.90
35607;DHT22;21729;58.392;15.656;2023-04-24T11:35:02;12.70;99.90
35607;DHT22;21729;58.392;15.656;2023-04-24T11:37:34;13.10;99.90
35607;DHT22;21729;58.392;15.656;2023-04-24T11:40:02;12.80;99.90
35607;DHT22;21729;58.392;15.656;2023-04-24T11:42:34;12.80;99.90
35607;DHT22;21729;58.392;15.656;2023-04-24T11:45:07;12.70;99.90
35607;DHT22;21729;58.392;15.656;2023-04-24T11:47:35;12.70;99.90
35607;DHT22;21729;58.392;15.656;2023-04-24T11:50:05;13.00;99.90
35607;DHT22;21729;58.392;15.656;2023-04-24T11:52:36;13.20;99.90
35607;DHT22;21729;58.392;15.656;2023-04-24T11:55:07;13.00;99.90
35607;DHT22;21729;58.392;15.656;2023-04-24T11:57:35;13.20;99.90
35607;DHT22;21729;58.392;15.656;2023-04-24T12:00:05;13.40;99.90
35607;DHT22;21729;58.392;15.656;2023-04-24T12:02:33;13.00;93.60
35607;DHT22;21729;58.392;15.656;2023-04-24T12:05:01;12.50;99.90
35607;DHT22;21729;58.392;15.656;2023-04-24T12:07:29;12.50;99.90
35607;DHT22;21729;58.392;15.656;2023-04-24T12:10:09;12.50;99.90
35607;DHT22;21729;58.392;15.656;2023-04-24T12:12:36;12.40;99.90
35607;DHT22;21729;58.392;15.656;2023-04-24T12:15:08;12.60;99.90
35607;DHT22;21729;58.392;15.656;2023-04-24T12:17:41;13.10;99.90
35607;DHT22;21729;58.392;15.656;2023-04-24T12:20:10;13.10;99.90
35607;DHT22;21729;58.392;15.656;2023-04-24T12:22:45;12.80;99.90
35607;DHT22;21729;58.392;15.656;2023-04-24T12:25:13;13.00;99.90
35607;DHT22;21729;58.392;15.656;2023-04-24T12:27:41;12.90;99.90
35607;DHT22;21729;58.392;15.656;2023-04-24T12:30:13;12.80;99.90
35607;DHT22;21729;58.392;15.656;2023-04-24T12:32:42;12.80;99.90
35607;DHT22;21729;58.392;15.656;2023-04-24T12:35:10;13.00;99.90
35607;DHT22;21729;58.392;15.656;2023-04-24T12:37:43;12.60;99.90
35607;DHT22;21729;58.392;15.656;2023-04-24T12:40:11;12.70;99.90
35607;DHT22;21729;58.392;15.656;2023-04-24T12:42:43;12.80;99.90
35607;DHT22;21729;58.392;15.656;2023-04-24T12:45:12;12.90;99.90
35607;DHT22;21729;58.392;15.656;2023-04-24T12:47:41;12.80;99.90
35607;DHT22;21729;58.392;15.656;2023-04-24T12:50:10;12.70;99.90
35607;DHT22;21729;58.392;15.656;2023-04-24T12:52:39;12.70;99.90
35607;DHT22;21729;58.392;15.656;2023-04-24T12:55:07;12.70;99.90
35607;DHT22;21729;58.392;15.656;2023-04-24T12:57:37;12.40;99.90
35607;DHT22;21729;58.392;15.656;2023-04-24T13:00:06;12.50;99.90
35607;DHT22;21729;58.392;15.656;2023-04-24T13:02:36;12.30;99.90
35607;DHT22;21729;58.392;15.656;2023-04-24T13:05:07;12.30;99.90
35607;DHT22;21729;58.392;15.656;2023-04-24T13:07:34;12.00;99.90
35607;DHT22;21729;58.392;15.656;2023-04-24T13:10:02;12.00;99.90
35607;DHT22;21729;58.392;15.656;2023-04-24T13:12:29;12.00;99.90
35607;DHT22;21729;58.392;15.656;2023-04-24T13:14:58;12.10;99.90
35607;DHT22;21729;58.392;15.656;2023-04-24T13:17:26;12.20;99.90
35607;DHT22;21729;58.392;15.656;2023-04-24T13:19:56;12.20;99.90
35607;DHT22;21729;58.392;15.656;2023-04-24T13:22:23;12.30;99.90
35607;DHT22;21729;58.392;15.656;2023-04-24T13:24:50;12.30;99.90
35607;DHT22;21729;58.392;15.656;2023-04-24T13:27:18;12.40;99.90
35607;DHT22;21729;58.392;15.656;2023-04-24T13:29:46;12.60;99.90
35607;DHT22;21729;58.392;15.656;2023-04-24T13:32:14;12.70;99.90
35607;DHT22;21729;58.392;15.656;2023-04-24T13:34:42;12.70;89.00
35607;DHT22;21729;58.392;15.656;2023-04-24T13:37:16;12.60;96.90
35607;DHT22;21729;58.392;15.656;2023-04-24T13:39:44;12.40;99.50
35607;DHT22;21729;58.392;15.656;2023-04-24T13:42:11;12.40;99.90
35607;DHT22;21729;58.392;15.656;2023-04-24T13:44:40;12.30;99.90
35607;DHT22;21729;58.392;15.656;2023-04-24T13:47:13;12.20;99.90
35607;DHT22;21729;58.392;15.656;2023-04-24T13:49:41;12.00;99.90
35607;DHT22;21729;58.392;15.656;2023-04-24T13:52:09;12.10;99.90
35607;DHT22;21729;58.392;15.656;2023-04-24T13:54:38;12.20;99.90
35607;DHT22;21729;58.392;15.656;2023-04-24T13:57:06;12.10;99.90
35607;DHT22;21729;58.392;15.656;2023-04-24T13:59:33;12.20;99.90
35607;DHT22;21729;58.392;15.656;2023-04-24T14:02:00;12.00;99.90
35607;DHT22;21729;58.392;15.656;2023-04-24T14:04:28;12.10;99.90
35607;DHT22;21729;58.392;15.656;2023-04-24T14:07:01;12.30;99.90
35607;DHT22;21729;58.392;15.656;2023-04-24T14:09:28;12.30;99.90
35607;DHT22;21729;58.392;15.656;2023-04-24T14:11:56;12.30;99.90
35607;DHT22;21729;58.392;15.656;2023-04-24T14:14:24;12.40;99.90
35607;DHT22;21729;58.392;15.656;2023-04-24T14:16:57;12.20;99.90
35607;DHT22;21729;58.392;15.656;2023-04-24T14:19:24;12.10;99.90
35607;DHT22;21729;58.392;15.656;2023-04-24T14:21:51;12.30;99.90
35607;DHT22;21729;58.392;15.656;2023-04-24T14:24:18;12.40;99.90
35607;DHT22;21729;58.392;15.656;2023-04-24T14:26:45;12.30;99.90
35607;DHT22;21729;58.392;15.656;2023-04-24T14:29:14;12.20;99.90
35607;DHT22;21729;58.392;15.656;2023-04-24T14:31:42;12.30;99.90
35607;DHT22;21729;58.392;15.656;2023-04-24T14:34:09;12.30;99.90
35607;DHT22;21729;58.392;15.656;2023-04-24T14:36:36;12.40;99.90
35607;DHT22;21729;58.392;15.656;2023-04-24T14:39:04;12.10;99.90
35607;DHT22;21729;58.392;15.656;2023-04-24T14:41:32;12.10;99.90
35607;DHT22;21729;58.392;15.656;2023-04-24T14:44:01;12.00;99.90
35607;DHT22;21729;58.392;15.656;2023-04-24T14:46:30;12.20;99.90
35607;DHT22;21729;58.392;15.656;2023-04-24T14:48:58;12.10;99.90
35607;DHT22;21729;58.392;15.656;2023-04-24T14:51:25;12.10;99.90
35607;DHT22;21729;58.392;15.656;2023-04-24T14:53:52;12.00;99.90
35607;DHT22;21729;58.392;15.656;2023-04-24T14:56:20;11.80;99.90
35607;DHT22;21729;58.392;15.656;2023-04-24T14:58:47;11.50;99.90
35607;DHT22;21729;58.392;15.656;2023-04-24T15:01:14;11.30;99.90
35607;DHT22;21729;58.392;15.656;2023-04-24T15:03:42;11.50;99.90
35607;DHT22;21729;58.392;15.656;2023-04-24T15:06:09;11.60;99.90
35607;DHT22;21729;58.392;15.656;2023-04-24T15:08:37;11.40;99.90
35607;DHT22;21729;58.392;15.656;2023-04-24T15:11:04;11.30;99.90
35607;DHT22;21729;58.392;15.656;2023-04-24T15:13:32;11.30;99.90
35607;DHT22;21729;58.392;15.656;2023-04-24T15:16:00;11.20;99.90
35607;DHT22;21729;58.392;15.656;2023-04-24T15:18:28;11.10;99.90
35607;DHT22;21729;58.392;15.656;2023-04-24T15:20:57;11.10;99.90
35607;DHT22;21729;58.392;15.656;2023-04-24T15:23:27;10.90;99.90
35607;DHT22;21729;58.392;15.656;2023-04-24T15:25:55;10.90;99.90
35607;DHT22;21729;58.392;15.656;2023-04-24T15:28:24;10.80;99.90
35607;DHT22;21729;58.392;15.656;2023-04-24T15:30:51;10.80;99.90
35607;DHT22;21729;58.392;15.656;2023-04-24T15:33:20;10.80;99.90
35607;DHT22;21729;58.392;15.656;2023-04-24T15:35:47;10.60;1.00
35607;DHT22;21729;58.392;15.656;2023-04-24T15:38:22;10.60;1.00